createdAt,value
2018-12-04T00:00:18.105Z,12.02
2018-12-04T00:00:44.212Z,11.94
2018-12-04T00:01:10.317Z,12.03
2018-12-04T00:01:36.421Z,12.04
2018-12-04T00:02:02.527Z,12
2018-12-04T00:02:28.656Z,12.03
2018-12-04T00:02:54.767Z,11.99
2018-12-04T00:03:20.884Z,12
2018-12-04T00:03:46.989Z,11.97
2018-12-04T00:04:13.101Z,11.97
2018-12-04T00:04:39.209Z,12
2018-12-04T00:05:05.312Z,11.94
2018-12-04T00:05:31.423Z,11.91
2018-12-04T00:05:57.525Z,11.95
2018-12-04T00:06:23.636Z,11.95
2018-12-04T00:06:49.772Z,11.99
2018-12-04T00:07:15.880Z,12
2018-12-04T00:07:41.981Z,12
2018-12-04T00:08:08.118Z,11.99
2018-12-04T00:08:34.279Z,11.97
2018-12-04T00:09:00.386Z,11.94
2018-12-04T00:09:26.495Z,11.97
2018-12-04T00:09:52.600Z,11.88
2018-12-04T00:10:18.709Z,12.02
2018-12-04T00:10:44.814Z,11.94
2018-12-04T00:11:10.915Z,11.91
2018-12-04T00:11:37.020Z,11.87
2018-12-04T00:12:03.149Z,11.91
2018-12-04T00:12:29.256Z,11.86
2018-12-04T00:12:55.368Z,11.87
2018-12-04T00:13:21.472Z,11.8
2018-12-04T00:13:47.608Z,11.8
2018-12-04T00:14:13.714Z,11.75
2018-12-04T00:14:39.845Z,11.73
2018-12-04T00:15:05.953Z,11.8
2018-12-04T00:15:32.094Z,11.78
2018-12-04T00:15:58.184Z,11.73
2018-12-04T00:16:24.288Z,11.8
2018-12-04T00:16:50.429Z,11.78
2018-12-04T00:17:16.558Z,11.77
2018-12-04T00:17:42.672Z,11.75
2018-12-04T00:18:08.803Z,11.66
2018-12-04T00:18:34.921Z,11.66
2018-12-04T00:19:01.029Z,11.72
2018-12-04T00:19:27.132Z,11.75
2018-12-04T00:19:53.242Z,11.75
2018-12-04T00:20:19.345Z,11.7
2018-12-04T00:20:45.456Z,11.7
2018-12-04T00:21:11.561Z,11.63
2018-12-04T00:21:37.669Z,11.68
2018-12-04T00:22:03.804Z,11.77
2018-12-04T00:22:29.909Z,11.68
2018-12-04T00:22:56.022Z,11.73
2018-12-04T00:23:22.127Z,11.72
2018-12-04T00:23:48.231Z,11.73
2018-12-04T00:24:14.342Z,11.8
2018-12-04T00:24:40.448Z,11.75
2018-12-04T00:25:06.566Z,11.77
2018-12-04T00:25:32.671Z,11.78
2018-12-04T00:25:58.808Z,11.73
2018-12-04T00:26:24.909Z,11.66
2018-12-04T00:26:51.014Z,11.7
2018-12-04T00:27:17.118Z,11.86
2018-12-04T00:27:43.223Z,11.72
2018-12-04T00:28:09.333Z,11.7
2018-12-04T00:28:35.448Z,11.68
2018-12-04T00:29:01.543Z,11.69
2018-12-04T00:29:27.653Z,11.62
2018-12-04T00:29:53.760Z,11.7
2018-12-04T00:30:19.864Z,11.65
2018-12-04T00:30:45.958Z,11.68
2018-12-04T00:31:12.060Z,11.69
2018-12-04T00:31:38.206Z,11.72
2018-12-04T00:32:04.341Z,11.7
2018-12-04T00:32:30.479Z,11.72
2018-12-04T00:32:56.586Z,11.66
2018-12-04T00:33:22.718Z,11.63
2018-12-04T00:33:48.824Z,11.65
2018-12-04T00:34:14.943Z,11.69
2018-12-04T00:34:41.043Z,11.62
2018-12-04T00:35:07.143Z,11.55
2018-12-04T00:35:33.245Z,11.63
2018-12-04T00:35:59.351Z,11.59
2018-12-04T00:36:25.457Z,11.65
2018-12-04T00:36:51.593Z,11.65
2018-12-04T00:37:17.728Z,11.6
2018-12-04T00:37:43.839Z,11.5
2018-12-04T00:38:09.967Z,11.47
2018-12-04T00:38:36.083Z,11.6
2018-12-04T00:39:02.219Z,11.52
2018-12-04T00:39:28.344Z,11.55
2018-12-04T00:39:54.455Z,11.59
2018-12-04T00:40:20.559Z,11.5
2018-12-04T00:40:46.667Z,11.62
2018-12-04T00:41:12.779Z,11.5
2018-12-04T00:41:38.876Z,11.51
2018-12-04T00:42:04.989Z,11.54
2018-12-04T00:42:31.117Z,11.48
2018-12-04T00:42:57.245Z,11.55
2018-12-04T00:43:23.355Z,11.55
2018-12-04T00:43:49.481Z,11.45
2018-12-04T00:44:15.586Z,11.51
2018-12-04T00:44:41.689Z,11.62
2018-12-04T00:45:07.793Z,11.51
2018-12-04T00:45:33.902Z,11.62
2018-12-04T00:46:00.012Z,11.51
2018-12-04T00:46:26.118Z,11.59
2018-12-04T00:46:52.219Z,11.59
2018-12-04T00:47:18.328Z,11.57
2018-12-04T00:47:44.436Z,11.62
2018-12-04T00:48:10.538Z,11.59
2018-12-04T00:48:36.645Z,11.51
2018-12-04T00:49:02.749Z,11.51
2018-12-04T00:49:28.853Z,11.55
2018-12-04T00:49:54.980Z,11.51
2018-12-04T00:50:21.107Z,11.44
2018-12-04T00:50:47.218Z,11.55
2018-12-04T00:51:13.317Z,11.51
2018-12-04T00:51:39.426Z,11.52
2018-12-04T00:52:05.561Z,11.51
2018-12-04T00:52:31.665Z,11.54
2018-12-04T00:52:57.765Z,11.5
2018-12-04T00:53:23.873Z,11.63
2018-12-04T00:53:50.011Z,11.62
2018-12-04T00:54:16.115Z,11.59
2018-12-04T00:54:42.225Z,11.63
2018-12-04T00:55:08.332Z,11.68
2018-12-04T00:55:34.443Z,11.55
2018-12-04T00:56:00.570Z,11.47
2018-12-04T00:56:26.674Z,11.55
2018-12-04T00:56:52.812Z,11.62
2018-12-04T00:57:18.943Z,11.65
2018-12-04T00:57:45.050Z,11.68
2018-12-04T00:58:11.158Z,11.69
2018-12-04T00:58:37.266Z,11.6
2018-12-04T00:59:03.373Z,11.55
2018-12-04T00:59:29.478Z,11.63
2018-12-04T00:59:55.582Z,11.59
2018-12-04T01:00:21.697Z,11.57
2018-12-04T01:00:47.803Z,11.63
2018-12-04T01:01:13.913Z,11.62
2018-12-04T01:01:40.012Z,11.59
2018-12-04T01:02:06.123Z,11.57
2018-12-04T01:02:32.221Z,11.65
2018-12-04T01:02:58.333Z,11.6
2018-12-04T01:03:24.439Z,11.57
2018-12-04T01:03:50.545Z,11.59
2018-12-04T01:04:16.643Z,11.62
2018-12-04T01:04:42.759Z,11.62
2018-12-04T01:05:08.869Z,11.62
2018-12-04T01:05:34.998Z,11.63
2018-12-04T01:06:01.109Z,11.57
2018-12-04T01:06:27.236Z,11.57
2018-12-04T01:06:53.345Z,11.57
2018-12-04T01:07:19.475Z,11.62
2018-12-04T01:07:45.608Z,11.55
2018-12-04T01:08:11.711Z,11.6
2018-12-04T01:08:37.839Z,11.5
2018-12-04T01:09:04.001Z,11.48
2018-12-04T01:09:30.105Z,11.5
2018-12-04T01:09:56.217Z,11.47
2018-12-04T01:10:22.325Z,11.47
2018-12-04T01:10:48.459Z,11.37
2018-12-04T01:11:14.595Z,11.54
2018-12-04T01:11:40.703Z,11.48
2018-12-04T01:12:06.806Z,11.47
2018-12-04T01:12:32.948Z,11.48
2018-12-04T01:12:59.047Z,11.57
2018-12-04T01:13:25.155Z,11.48
2018-12-04T01:13:51.282Z,11.47
2018-12-04T01:14:17.392Z,11.48
2018-12-04T01:14:43.498Z,11.44
2018-12-04T01:15:09.608Z,11.41
2018-12-04T01:15:35.716Z,11.41
2018-12-04T01:16:01.820Z,11.44
2018-12-04T01:16:27.956Z,11.41
2018-12-04T01:16:54.091Z,11.41
2018-12-04T01:17:20.197Z,11.45
2018-12-04T01:17:46.303Z,11.43
2018-12-04T01:18:12.439Z,11.37
2018-12-04T01:18:38.575Z,11.43
2018-12-04T01:19:04.691Z,11.33
2018-12-04T01:19:30.817Z,11.29
2018-12-04T01:19:56.926Z,11.32
2018-12-04T01:20:23.033Z,11.4
2018-12-04T01:20:49.140Z,11.41
2018-12-04T01:21:15.247Z,11.33
2018-12-04T01:21:41.355Z,11.33
2018-12-04T01:22:07.463Z,11.33
2018-12-04T01:22:33.590Z,11.32
2018-12-04T01:22:59.681Z,11.3
2018-12-04T01:23:25.785Z,11.26
2018-12-04T01:23:51.893Z,11.27
2018-12-04T01:24:18.005Z,11.26
2018-12-04T01:24:44.112Z,11.29
2018-12-04T01:25:10.223Z,11.29
2018-12-04T01:25:36.358Z,11.25
2018-12-04T01:26:02.489Z,11.26
2018-12-04T01:26:28.603Z,11.18
2018-12-04T01:26:54.729Z,11.27
2018-12-04T01:27:20.835Z,11.23
2018-12-04T01:27:46.942Z,11.25
2018-12-04T01:28:13.049Z,11.33
2018-12-04T01:28:39.155Z,11.19
2018-12-04T01:29:05.261Z,11.25
2018-12-04T01:29:31.374Z,11.22
2018-12-04T01:29:57.481Z,11.26
2018-12-04T01:30:23.584Z,11.29
2018-12-04T01:30:49.690Z,11.26
2018-12-04T01:31:15.804Z,11.3
2018-12-04T01:31:41.937Z,11.37
2018-12-04T01:32:08.041Z,11.35
2018-12-04T01:32:34.142Z,11.33
2018-12-04T01:33:00.243Z,11.35
2018-12-04T01:33:26.383Z,11.35
2018-12-04T01:33:52.486Z,11.26
2018-12-04T01:34:18.596Z,11.29
2018-12-04T01:34:44.697Z,11.26
2018-12-04T01:35:10.835Z,11.18
2018-12-04T01:35:36.972Z,11.26
2018-12-04T01:36:03.072Z,11.22
2018-12-04T01:36:29.214Z,11.18
2018-12-04T01:36:55.323Z,11.19
2018-12-04T01:37:21.421Z,11.22
2018-12-04T01:37:47.541Z,11.19
2018-12-04T01:38:13.674Z,11.19
2018-12-04T01:38:39.777Z,11.17
2018-12-04T01:39:05.881Z,11.08
2018-12-04T01:39:31.989Z,11.23
2018-12-04T01:39:58.092Z,11.15
2018-12-04T01:40:24.202Z,11.12
2018-12-04T01:40:50.311Z,11.12
2018-12-04T01:41:16.416Z,11.11
2018-12-04T01:41:42.546Z,11.18
2018-12-04T01:42:08.653Z,11.15
2018-12-04T01:42:34.763Z,11.25
2018-12-04T01:43:00.866Z,11.23
2018-12-04T01:43:26.970Z,11.17
2018-12-04T01:43:53.077Z,11.23
2018-12-04T01:44:19.186Z,11.17
2018-12-04T01:44:45.320Z,11.22
2018-12-04T01:45:11.447Z,11.19
2018-12-04T01:45:37.557Z,11.23
2018-12-04T01:46:03.661Z,11.25
2018-12-04T01:46:29.764Z,11.15
2018-12-04T01:46:55.854Z,11.15
2018-12-04T01:47:21.962Z,11.18
2018-12-04T01:47:48.073Z,11.14
2018-12-04T01:48:14.182Z,11.12
2018-12-04T01:48:40.285Z,11.14
2018-12-04T01:49:06.407Z,11.17
2018-12-04T01:49:32.515Z,11.19
2018-12-04T01:49:58.645Z,11.1
2018-12-04T01:50:24.765Z,11.22
2018-12-04T01:50:50.923Z,11.18
2018-12-04T01:51:17.023Z,11.14
2018-12-04T01:51:43.136Z,11.23
2018-12-04T01:52:09.247Z,11.18
2018-12-04T01:52:35.354Z,11.18
2018-12-04T01:53:01.467Z,11.07
2018-12-04T01:53:27.568Z,11.12
2018-12-04T01:53:53.687Z,11.07
2018-12-04T01:54:19.789Z,11.08
2018-12-04T01:54:45.898Z,11.14
2018-12-04T01:55:12.046Z,11.11
2018-12-04T01:55:38.181Z,11.17
2018-12-04T01:56:04.283Z,11.14
2018-12-04T01:56:30.390Z,11.11
2018-12-04T01:56:56.493Z,11.15
2018-12-04T01:57:22.604Z,11.25
2018-12-04T01:57:48.710Z,11.17
2018-12-04T01:58:14.822Z,11.19
2018-12-04T01:58:40.921Z,11.19
2018-12-04T01:59:07.025Z,11.15
2018-12-04T01:59:33.165Z,11.26
2018-12-04T01:59:59.303Z,11.26
2018-12-04T02:00:25.409Z,11.19
2018-12-04T02:00:51.508Z,11.19
2018-12-04T02:01:17.618Z,11.19
2018-12-04T02:01:43.729Z,11.22
2018-12-04T02:02:09.833Z,11.29
2018-12-04T02:02:35.940Z,11.27
2018-12-04T02:03:02.102Z,11.19
2018-12-04T02:03:28.237Z,11.27
2018-12-04T02:03:54.382Z,11.18
2018-12-04T02:04:20.488Z,11.26
2018-12-04T02:04:46.593Z,11.22
2018-12-04T02:05:12.699Z,11.19
2018-12-04T02:05:38.870Z,11.23
2018-12-04T02:06:04.973Z,11.23
2018-12-04T02:06:31.083Z,11.23
2018-12-04T02:06:57.215Z,11.22
2018-12-04T02:07:23.326Z,11.26
2018-12-04T02:07:49.435Z,11.27
2018-12-04T02:08:15.551Z,11.25
2018-12-04T02:08:41.692Z,11.19
2018-12-04T02:09:07.807Z,11.23
2018-12-04T02:09:33.917Z,11.26
2018-12-04T02:10:00.041Z,11.29
2018-12-04T02:10:26.150Z,11.35
2018-12-04T02:10:52.252Z,11.35
2018-12-04T02:11:18.365Z,11.4
2018-12-04T02:11:44.468Z,11.32
2018-12-04T02:12:10.578Z,11.35
2018-12-04T02:12:36.789Z,11.36
2018-12-04T02:13:02.930Z,11.25
2018-12-04T02:13:29.041Z,11.35
2018-12-04T02:13:55.149Z,11.35
2018-12-04T02:14:21.253Z,11.3
2018-12-04T02:14:47.382Z,11.32
2018-12-04T02:15:13.519Z,11.3
2018-12-04T02:15:39.642Z,11.26
2018-12-04T02:16:05.748Z,11.3
2018-12-04T02:16:31.854Z,11.27
2018-12-04T02:16:57.963Z,11.29
2018-12-04T02:17:24.091Z,11.3
2018-12-04T02:17:50.276Z,11.23
2018-12-04T02:18:16.386Z,11.27
2018-12-04T02:18:42.495Z,11.32
2018-12-04T02:19:08.606Z,11.27
2018-12-04T02:19:34.714Z,11.29
2018-12-04T02:20:00.812Z,11.25
2018-12-04T02:20:26.924Z,11.33
2018-12-04T02:20:53.032Z,11.18
2018-12-04T02:21:19.137Z,11.22
2018-12-04T02:21:45.244Z,11.3
2018-12-04T02:22:11.378Z,11.32
2018-12-04T02:22:37.478Z,11.3
2018-12-04T02:23:03.587Z,11.23
2018-12-04T02:23:29.694Z,11.3
2018-12-04T02:23:55.810Z,11.27
2018-12-04T02:24:21.908Z,11.35
2018-12-04T02:24:48.016Z,11.29
2018-12-04T02:25:14.173Z,11.29
2018-12-04T02:25:40.218Z,11.32
2018-12-04T02:26:06.329Z,11.27
2018-12-04T02:26:32.456Z,11.29
2018-12-04T02:26:58.571Z,11.25
2018-12-04T02:27:24.685Z,11.29
2018-12-04T02:27:50.819Z,11.3
2018-12-04T02:28:16.927Z,11.27
2018-12-04T02:28:43.029Z,11.26
2018-12-04T02:29:09.134Z,11.26
2018-12-04T02:29:35.280Z,11.22
2018-12-04T02:30:01.407Z,11.25
2018-12-04T02:30:27.539Z,11.18
2018-12-04T02:30:53.640Z,11.23
2018-12-04T02:31:19.803Z,11.23
2018-12-04T02:31:45.916Z,11.26
2018-12-04T02:32:12.023Z,11.19
2018-12-04T02:32:38.121Z,11.29
2018-12-04T02:33:04.232Z,11.26
2018-12-04T02:33:30.371Z,11.19
2018-12-04T02:33:56.508Z,11.23
2018-12-04T02:34:22.615Z,11.25
2018-12-04T02:34:48.765Z,11.26
2018-12-04T02:35:14.858Z,11.18
2018-12-04T02:35:40.978Z,11.23
2018-12-04T02:36:07.124Z,11.15
2018-12-04T02:36:33.307Z,11.19
2018-12-04T02:36:59.641Z,11.15
2018-12-04T02:37:25.753Z,11.15
2018-12-04T02:37:51.923Z,11.17
2018-12-04T02:38:18.026Z,11.22
2018-12-04T02:38:44.138Z,11.19
2018-12-04T02:39:10.242Z,11.14
2018-12-04T02:39:36.344Z,11.17
2018-12-04T02:40:02.518Z,11.15
2018-12-04T02:40:28.612Z,11.11
2018-12-04T02:40:54.718Z,11.12
2018-12-04T02:41:20.819Z,11.15
2018-12-04T02:41:46.928Z,11.14
2018-12-04T02:42:13.093Z,11.11
2018-12-04T02:42:39.211Z,11.12
2018-12-04T02:43:05.320Z,11.1
2018-12-04T02:43:31.501Z,11.14
2018-12-04T02:43:57.612Z,11.23
2018-12-04T02:44:23.756Z,11.15
2018-12-04T02:44:49.856Z,11.23
2018-12-04T02:45:15.961Z,11.22
2018-12-04T02:45:42.060Z,11.15
2018-12-04T02:46:08.166Z,11.14
2018-12-04T02:46:34.279Z,11.15
2018-12-04T02:47:00.415Z,11.15
2018-12-04T02:47:26.577Z,11.18
2018-12-04T02:47:52.681Z,11.23
2018-12-04T02:48:18.789Z,11.18
2018-12-04T02:48:44.921Z,11.17
2018-12-04T02:49:11.064Z,11.19
2018-12-04T02:49:37.199Z,11.23
2018-12-04T02:50:03.300Z,11.19
2018-12-04T02:50:29.419Z,11.12
2018-12-04T02:50:55.545Z,11.14
2018-12-04T02:51:21.658Z,11.14
2018-12-04T02:51:47.760Z,11.14
2018-12-04T02:52:13.859Z,11.23
2018-12-04T02:52:39.998Z,11.19
2018-12-04T02:53:06.105Z,11.12
2018-12-04T02:53:32.238Z,11.17
2018-12-04T02:53:58.347Z,11.14
2018-12-04T02:54:24.450Z,11.17
2018-12-04T02:54:50.554Z,11.14
2018-12-04T02:55:16.698Z,11.15
2018-12-04T02:55:42.797Z,11.17
2018-12-04T02:56:08.943Z,11.12
2018-12-04T02:56:35.086Z,11.19
2018-12-04T02:57:01.188Z,11.15
2018-12-04T02:57:27.325Z,11.23
2018-12-04T02:57:53.425Z,11.15
2018-12-04T02:58:19.537Z,11.14
2018-12-04T02:58:45.645Z,11.15
2018-12-04T02:59:11.746Z,11.17
2018-12-04T02:59:37.872Z,11.12
2018-12-04T03:00:03.984Z,11.15
2018-12-04T03:00:30.136Z,11.12
2018-12-04T03:00:56.267Z,11.15
2018-12-04T03:01:22.404Z,11.17
2018-12-04T03:01:48.526Z,11.25
2018-12-04T03:02:14.646Z,11.17
2018-12-04T03:02:40.767Z,11.19
2018-12-04T03:03:06.858Z,11.25
2018-12-04T03:03:32.968Z,11.22
2018-12-04T03:03:59.104Z,11.19
2018-12-04T03:04:25.209Z,11.17
2018-12-04T03:04:51.409Z,11.23
2018-12-04T03:05:17.534Z,11.25
2018-12-04T03:05:43.644Z,11.23
2018-12-04T03:06:09.754Z,11.25
2018-12-04T03:06:35.887Z,11.29
2018-12-04T03:07:02.019Z,11.27
2018-12-04T03:07:28.194Z,11.23
2018-12-04T03:07:54.357Z,11.23
2018-12-04T03:08:20.459Z,11.19
2018-12-04T03:08:46.589Z,11.27
2018-12-04T03:09:12.695Z,11.25
2018-12-04T03:09:38.799Z,11.25
2018-12-04T03:10:04.908Z,11.26
2018-12-04T03:10:31.035Z,11.23
2018-12-04T03:10:57.144Z,11.3
2018-12-04T03:11:23.311Z,11.27
2018-12-04T03:11:49.472Z,11.3
2018-12-04T03:12:15.577Z,11.23
2018-12-04T03:12:41.689Z,11.29
2018-12-04T03:13:07.823Z,11.32
2018-12-04T03:13:33.929Z,11.3
2018-12-04T03:14:00.035Z,11.27
2018-12-04T03:14:26.141Z,11.25
2018-12-04T03:14:52.248Z,11.27
2018-12-04T03:15:18.382Z,11.3
2018-12-04T03:15:44.488Z,11.36
2018-12-04T03:16:10.621Z,11.32
2018-12-04T03:16:36.726Z,11.32
2018-12-04T03:17:02.864Z,11.36
2018-12-04T03:17:28.978Z,11.36
2018-12-04T03:17:55.085Z,11.3
2018-12-04T03:18:21.197Z,11.32
2018-12-04T03:18:47.296Z,11.36
2018-12-04T03:19:13.439Z,11.3
2018-12-04T03:19:39.580Z,11.32
2018-12-04T03:20:05.718Z,11.36
2018-12-04T03:20:31.883Z,11.32
2018-12-04T03:20:57.990Z,11.32
2018-12-04T03:21:24.146Z,11.32
2018-12-04T03:21:50.285Z,11.3
2018-12-04T03:22:16.386Z,11.32
2018-12-04T03:22:42.487Z,11.26
2018-12-04T03:23:08.601Z,11.29
2018-12-04T03:23:34.738Z,11.19
2018-12-04T03:24:00.840Z,11.25
2018-12-04T03:24:26.943Z,11.26
2018-12-04T03:24:53.048Z,11.17
2018-12-04T03:25:19.183Z,11.17
2018-12-04T03:25:45.289Z,11.19
2018-12-04T03:26:11.392Z,11.19
2018-12-04T03:26:37.507Z,11.25
2018-12-04T03:27:03.607Z,11.23
2018-12-04T03:27:29.712Z,11.18
2018-12-04T03:27:55.819Z,11.19
2018-12-04T03:28:21.928Z,11.25
2018-12-04T03:28:48.062Z,11.29
2018-12-04T03:29:14.165Z,11.23
2018-12-04T03:29:40.278Z,11.29
2018-12-04T03:30:06.408Z,11.3
2018-12-04T03:30:32.553Z,11.29
2018-12-04T03:30:58.652Z,11.19
2018-12-04T03:31:24.806Z,11.19
2018-12-04T03:31:50.943Z,11.23
2018-12-04T03:32:17.141Z,11.3
2018-12-04T03:32:43.244Z,11.26
2018-12-04T03:33:09.415Z,11.23
2018-12-04T03:33:35.657Z,11.26
2018-12-04T03:34:01.826Z,11.27
2018-12-04T03:34:27.963Z,11.25
2018-12-04T03:34:54.097Z,11.26
2018-12-04T03:35:20.233Z,11.25
2018-12-04T03:35:46.339Z,11.26
2018-12-04T03:36:12.473Z,11.27
2018-12-04T03:36:38.581Z,11.26
2018-12-04T03:37:04.718Z,11.19
2018-12-04T03:37:30.827Z,11.17
2018-12-04T03:37:56.937Z,11.11
2018-12-04T03:38:23.029Z,11.15
2018-12-04T03:38:49.138Z,11.17
2018-12-04T03:39:15.272Z,11.22
2018-12-04T03:39:41.376Z,11.15
2018-12-04T03:40:07.511Z,11.15
2018-12-04T03:40:33.681Z,11.22
2018-12-04T03:40:59.819Z,11.15
2018-12-04T03:41:25.921Z,11.15
2018-12-04T03:41:52.034Z,11.25
2018-12-04T03:42:18.171Z,11.23
2018-12-04T03:42:44.271Z,11.19
2018-12-04T03:43:10.404Z,11.26
2018-12-04T03:43:36.538Z,11.22
2018-12-04T03:44:02.649Z,11.14
2018-12-04T03:44:28.785Z,11.12
2018-12-04T03:44:54.912Z,11.18
2018-12-04T03:45:21.021Z,11.19
2018-12-04T03:45:47.156Z,11.15
2018-12-04T03:46:13.259Z,11.17
2018-12-04T03:46:39.369Z,11.17
2018-12-04T03:47:05.507Z,11.23
2018-12-04T03:47:31.610Z,11.23
2018-12-04T03:47:57.772Z,11.11
2018-12-04T03:48:23.884Z,11.15
2018-12-04T03:48:50.027Z,11.17
2018-12-04T03:49:16.186Z,11.18
2018-12-04T03:49:42.322Z,11.11
2018-12-04T03:50:08.435Z,11.25
2018-12-04T03:50:34.572Z,11.15
2018-12-04T03:51:00.673Z,11.26
2018-12-04T03:51:26.785Z,11.23
2018-12-04T03:51:52.891Z,11.19
2018-12-04T03:52:18.996Z,11.14
2018-12-04T03:52:45.161Z,11.25
2018-12-04T03:53:11.312Z,11.19
2018-12-04T03:53:37.431Z,11.26
2018-12-04T03:54:03.577Z,11.15
2018-12-04T03:54:29.681Z,11.18
2018-12-04T03:54:55.876Z,11.22
2018-12-04T03:55:21.997Z,11.23
2018-12-04T03:55:48.103Z,11.19
2018-12-04T03:56:14.238Z,11.23
2018-12-04T03:56:40.345Z,11.12
2018-12-04T03:57:06.456Z,11.18
2018-12-04T03:57:32.583Z,11.12
2018-12-04T03:57:58.720Z,11.08
2018-12-04T03:58:24.847Z,11.11
2018-12-04T03:58:50.951Z,11.11
2018-12-04T03:59:17.055Z,11.04
2018-12-04T03:59:43.163Z,11
2018-12-04T04:00:09.266Z,11.11
2018-12-04T04:00:35.402Z,11.1
2018-12-04T04:01:01.545Z,11.12
2018-12-04T04:01:27.654Z,11.1
2018-12-04T04:01:53.751Z,11.1
2018-12-04T04:02:19.874Z,11.04
2018-12-04T04:02:46.002Z,11.02
2018-12-04T04:03:12.101Z,11.12
2018-12-04T04:03:38.207Z,11
2018-12-04T04:04:04.350Z,11
2018-12-04T04:04:30.458Z,11.04
2018-12-04T04:04:56.558Z,11.05
2018-12-04T04:05:22.664Z,11.02
2018-12-04T04:05:48.775Z,11.04
2018-12-04T04:06:14.887Z,11.04
2018-12-04T04:06:40.987Z,11.04
2018-12-04T04:07:07.136Z,11
2018-12-04T04:07:33.288Z,11.05
2018-12-04T04:07:59.460Z,11.07
2018-12-04T04:08:25.590Z,11.04
2018-12-04T04:08:51.697Z,11.04
2018-12-04T04:09:17.803Z,10.99
2018-12-04T04:09:43.916Z,11.12
2018-12-04T04:10:10.021Z,11.08
2018-12-04T04:10:36.117Z,11.11
2018-12-04T04:11:02.250Z,11.15
2018-12-04T04:11:28.353Z,11.12
2018-12-04T04:11:54.464Z,11.12
2018-12-04T04:12:20.573Z,11.11
2018-12-04T04:12:46.679Z,11.15
2018-12-04T04:13:12.787Z,11.04
2018-12-04T04:13:38.945Z,11.07
2018-12-04T04:14:05.048Z,11
2018-12-04T04:14:31.209Z,11.08
2018-12-04T04:14:57.310Z,11.07
2018-12-04T04:15:23.416Z,11.02
2018-12-04T04:15:49.518Z,11
2018-12-04T04:16:15.679Z,11.04
2018-12-04T04:16:41.789Z,11.05
2018-12-04T04:17:07.944Z,11.12
2018-12-04T04:17:34.044Z,11.1
2018-12-04T04:18:00.178Z,11.1
2018-12-04T04:18:26.282Z,11.08
2018-12-04T04:18:52.392Z,11.11
2018-12-04T04:19:18.491Z,11.1
2018-12-04T04:19:44.596Z,11.14
2018-12-04T04:20:10.706Z,11.1
2018-12-04T04:20:36.811Z,11.12
2018-12-04T04:21:03.930Z,11.02
2018-12-04T04:21:30.036Z,11.12
2018-12-04T04:21:56.167Z,11.14
2018-12-04T04:22:22.291Z,11.04
2018-12-04T04:22:48.399Z,11.05
2018-12-04T04:23:14.507Z,10.97
2018-12-04T04:23:40.613Z,11.05
2018-12-04T04:24:06.713Z,11.07
2018-12-04T04:24:32.819Z,11
2018-12-04T04:24:58.927Z,10.96
2018-12-04T04:25:25.058Z,11.02
2018-12-04T04:25:51.168Z,11.02
2018-12-04T04:26:17.303Z,10.93
2018-12-04T04:26:43.409Z,10.92
2018-12-04T04:27:09.543Z,10.93
2018-12-04T04:27:35.652Z,10.92
2018-12-04T04:28:01.783Z,10.96
2018-12-04T04:28:27.896Z,10.89
2018-12-04T04:28:54.035Z,10.9
2018-12-04T04:29:20.137Z,10.84
2018-12-04T04:29:46.253Z,10.89
2018-12-04T04:30:12.384Z,10.82
2018-12-04T04:30:38.521Z,10.74
2018-12-04T04:31:04.624Z,10.84
2018-12-04T04:31:30.738Z,10.79
2018-12-04T04:31:56.837Z,10.89
2018-12-04T04:32:22.947Z,10.78
2018-12-04T04:32:49.050Z,10.75
2018-12-04T04:33:15.187Z,10.78
2018-12-04T04:33:41.311Z,10.67
2018-12-04T04:34:07.404Z,10.67
2018-12-04T04:34:33.546Z,10.69
2018-12-04T04:34:59.668Z,10.61
2018-12-04T04:35:25.776Z,10.67
2018-12-04T04:35:51.877Z,10.67
2018-12-04T04:36:17.979Z,10.67
2018-12-04T04:36:44.082Z,10.63
2018-12-04T04:37:10.194Z,10.57
2018-12-04T04:37:36.325Z,10.63
2018-12-04T04:38:02.456Z,10.56
2018-12-04T04:38:28.620Z,10.68
2018-12-04T04:38:54.772Z,10.56
2018-12-04T04:39:20.907Z,10.59
2018-12-04T04:39:47.011Z,10.64
2018-12-04T04:40:13.107Z,10.53
2018-12-04T04:40:39.218Z,10.54
2018-12-04T04:41:05.324Z,10.54
2018-12-04T04:41:31.455Z,10.46
2018-12-04T04:41:57.559Z,10.49
2018-12-04T04:42:23.695Z,10.56
2018-12-04T04:42:49.858Z,10.4
2018-12-04T04:43:15.968Z,10.54
2018-12-04T04:43:42.093Z,10.4
2018-12-04T04:44:08.294Z,10.42
2018-12-04T04:44:34.394Z,10.37
2018-12-04T04:45:00.504Z,10.35
2018-12-04T04:45:26.615Z,10.4
2018-12-04T04:45:52.745Z,10.37
2018-12-04T04:46:19.800Z,10.4
2018-12-04T04:46:45.910Z,10.38
2018-12-04T04:47:12.015Z,10.33
2018-12-04T04:47:38.126Z,10.31
2018-12-04T04:48:04.299Z,10.41
2018-12-04T04:48:30.487Z,10.44
2018-12-04T04:48:56.601Z,10.35
2018-12-04T04:49:22.756Z,10.42
2018-12-04T04:49:48.886Z,10.4
2018-12-04T04:50:14.988Z,10.41
2018-12-04T04:50:41.164Z,10.42
2018-12-04T04:51:07.300Z,10.42
2018-12-04T04:51:33.415Z,10.28
2018-12-04T04:51:59.548Z,10.4
2018-12-04T04:52:25.650Z,10.37
2018-12-04T04:52:51.811Z,10.31
2018-12-04T04:53:17.944Z,10.3
2018-12-04T04:53:44.048Z,10.35
2018-12-04T04:54:10.159Z,10.3
2018-12-04T04:54:36.318Z,10.31
2018-12-04T04:55:02.458Z,10.31
2018-12-04T04:55:28.562Z,10.37
2018-12-04T04:55:54.665Z,10.33
2018-12-04T04:56:20.778Z,10.38
2018-12-04T04:56:46.876Z,10.31
2018-12-04T04:57:12.982Z,10.33
2018-12-04T04:57:39.092Z,10.26
2018-12-04T04:58:05.188Z,10.3
2018-12-04T04:58:31.327Z,10.35
2018-12-04T04:58:57.465Z,10.23
2018-12-04T04:59:23.596Z,10.28
2018-12-04T04:59:49.703Z,10.34
2018-12-04T05:00:15.807Z,10.26
2018-12-04T05:00:41.972Z,10.28
2018-12-04T05:01:08.071Z,10.22
2018-12-04T05:01:34.205Z,10.25
2018-12-04T05:02:00.308Z,10.19
2018-12-04T05:02:26.416Z,10.15
2018-12-04T05:02:52.519Z,10.19
2018-12-04T05:03:18.651Z,10.15
2018-12-04T05:03:44.759Z,10.19
2018-12-04T05:04:10.860Z,10.16
2018-12-04T05:04:36.992Z,10.2
2018-12-04T05:05:03.099Z,10.16
2018-12-04T05:05:29.201Z,10.15
2018-12-04T05:05:55.303Z,10.12
2018-12-04T05:06:21.406Z,10.09
2018-12-04T05:06:47.544Z,10.15
2018-12-04T05:07:13.701Z,10.04
2018-12-04T05:07:39.805Z,10.1
2018-12-04T05:08:05.918Z,10.09
2018-12-04T05:08:32.013Z,10.16
2018-12-04T05:08:58.115Z,10.13
2018-12-04T05:09:24.247Z,9.98
2018-12-04T05:09:50.401Z,10.1
2018-12-04T05:10:16.513Z,10.07
2018-12-04T05:10:42.612Z,10.01
2018-12-04T05:11:08.722Z,10.13
2018-12-04T05:11:34.831Z,10.13
2018-12-04T05:12:00.987Z,10.05
2018-12-04T05:12:27.095Z,10.13
2018-12-04T05:12:53.219Z,10.04
2018-12-04T05:13:19.335Z,10.13
2018-12-04T05:13:45.466Z,9.97
2018-12-04T05:14:11.597Z,9.97
2018-12-04T05:14:37.754Z,10.01
2018-12-04T05:15:03.861Z,9.98
2018-12-04T05:15:29.973Z,9.98
2018-12-04T05:15:56.101Z,9.98
2018-12-04T05:16:22.229Z,9.98
2018-12-04T05:16:48.366Z,9.99
2018-12-04T05:17:14.495Z,9.97
2018-12-04T05:17:40.609Z,9.94
2018-12-04T05:18:06.767Z,9.95
2018-12-04T05:18:32.922Z,9.89
2018-12-04T05:18:59.170Z,9.97
2018-12-04T05:19:25.301Z,9.92
2018-12-04T05:19:51.404Z,10.01
2018-12-04T05:20:17.509Z,9.92
2018-12-04T05:20:43.651Z,9.91
2018-12-04T05:21:09.756Z,9.89
2018-12-04T05:21:35.853Z,9.8
2018-12-04T05:22:01.961Z,9.83
2018-12-04T05:22:28.065Z,9.87
2018-12-04T05:22:54.169Z,9.87
2018-12-04T05:23:20.268Z,9.79
2018-12-04T05:23:46.379Z,9.82
2018-12-04T05:24:12.482Z,9.95
2018-12-04T05:24:38.592Z,9.84
2018-12-04T05:25:04.696Z,9.86
2018-12-04T05:25:30.800Z,9.95
2018-12-04T05:25:56.908Z,9.92
2018-12-04T05:26:23.013Z,9.84
2018-12-04T05:26:49.121Z,9.92
2018-12-04T05:27:15.220Z,9.86
2018-12-04T05:27:41.352Z,9.95
2018-12-04T05:28:07.450Z,9.83
2018-12-04T05:28:33.556Z,9.98
2018-12-04T05:28:59.661Z,9.95
2018-12-04T05:29:25.774Z,9.84
2018-12-04T05:29:51.879Z,9.94
2018-12-04T05:30:17.988Z,9.89
2018-12-04T05:30:44.097Z,9.92
2018-12-04T05:31:10.232Z,9.87
2018-12-04T05:31:36.364Z,9.86
2018-12-04T05:32:02.468Z,9.91
2018-12-04T05:32:28.572Z,9.89
2018-12-04T05:32:54.680Z,9.82
2018-12-04T05:33:20.793Z,9.83
2018-12-04T05:33:46.916Z,9.86
2018-12-04T05:34:13.057Z,9.95
2018-12-04T05:34:39.157Z,9.89
2018-12-04T05:35:05.292Z,9.8
2018-12-04T05:35:31.392Z,9.83
2018-12-04T05:35:57.532Z,9.79
2018-12-04T05:36:23.630Z,9.83
2018-12-04T05:36:49.763Z,9.8
2018-12-04T05:37:15.898Z,9.79
2018-12-04T05:37:41.996Z,9.8
2018-12-04T05:38:08.098Z,9.84
2018-12-04T05:38:34.201Z,9.83